Terminal Aerodrome Forecast
Issued by NWS Sioux Falls, SD

Home | Current Version | Previous Version | Graphics & Text | Print | Product List | Glossary On
Versions: 1 2 3 4 5 6 7 8 9 10 11 12 13 14 15 16 17
000
FTUS43 KFSD 142333
TAFHON
TAF
KHON 142333Z 1500/1524 32008KT P6SM SCT110
     FM150400 33011KT P6SM SCT150
     FM151600 32015G23KT P6SM FEW250
     FM152200 33011KT P6SM FEW250=

USA.gov is the U.S. government's official web portal to all federal, state and local government web resources and services.